createdAt,value
2019-05-28T00:01:27.275Z,46.87
2019-05-28T00:03:55.356Z,46.90
2019-05-28T00:06:23.437Z,46.89
2019-05-28T00:08:51.378Z,46.88
2019-05-28T00:11:19.372Z,46.93
2019-05-28T00:13:47.411Z,46.94
2019-05-28T00:16:15.409Z,46.91
2019-05-28T00:18:43.379Z,46.92
2019-05-28T00:21:11.370Z,46.95
2019-05-28T00:23:39.415Z,46.94
2019-05-28T00:26:07.433Z,46.99
2019-05-28T00:28:35.476Z,46.95
2019-05-28T00:31:03.473Z,47.04
2019-05-28T00:33:31.465Z,47.05
2019-05-28T00:35:59.563Z,47.04
2019-05-28T00:38:27.534Z,47.05
2019-05-28T00:40:55.547Z,47.08
2019-05-28T00:43:23.676Z,47.09
2019-05-28T00:45:51.682Z,47.14
2019-05-28T00:48:19.776Z,47.17
2019-05-28T00:50:47.858Z,47.18
2019-05-28T00:53:15.827Z,47.18
2019-05-28T00:55:43.827Z,47.17
2019-05-28T00:58:11.813Z,47.18
2019-05-28T01:00:57.925Z,47.21
2019-05-28T01:03:26.037Z,47.22
2019-05-28T01:05:54.030Z,47.18
2019-05-28T01:08:21.998Z,47.23
2019-05-28T01:10:50.066Z,47.25
2019-05-28T01:13:18.122Z,47.22
2019-05-28T01:15:46.114Z,47.17
2019-05-28T01:18:14.103Z,47.14
2019-05-28T01:20:42.107Z,47.12
2019-05-28T01:23:10.155Z,47.17
2019-05-28T01:25:38.159Z,47.17
2019-05-28T01:28:06.207Z,47.12
2019-05-28T01:30:34.234Z,47.16
2019-05-28T01:33:02.205Z,47.19
2019-05-28T01:35:30.215Z,47.21
2019-05-28T01:37:58.186Z,47.20
2019-05-28T01:40:26.257Z,47.26
2019-05-28T01:42:54.310Z,47.25
2019-05-28T01:45:22.406Z,47.25
2019-05-28T01:47:50.681Z,47.32
2019-05-28T01:50:18.772Z,47.33
2019-05-28T01:52:46.755Z,47.31
2019-05-28T01:55:15.423Z,47.32
2019-05-28T01:57:43.470Z,47.36
2019-05-28T02:00:11.642Z,47.34
2019-05-28T02:02:39.799Z,47.34
2019-05-28T02:05:08.084Z,47.39
2019-05-28T02:07:36.070Z,47.42
2019-05-28T02:10:04.464Z,47.45
2019-05-28T02:12:32.441Z,47.48
2019-05-28T02:15:00.440Z,47.43
2019-05-28T02:17:28.430Z,47.48
2019-05-28T02:19:56.470Z,47.54
2019-05-28T02:22:24.471Z,47.45
2019-05-28T02:24:52.519Z,47.52
2019-05-28T02:27:20.590Z,47.48
2019-05-28T02:29:48.574Z,47.46
2019-05-28T02:32:16.598Z,47.48
2019-05-28T02:34:44.742Z,47.45
2019-05-28T02:37:12.752Z,47.50
2019-05-28T02:39:40.734Z,47.45
2019-05-28T02:42:08.735Z,47.50
2019-05-28T02:44:36.718Z,47.52
2019-05-28T02:47:04.819Z,47.53
2019-05-28T02:49:32.938Z,47.50
2019-05-28T02:52:00.894Z,47.59
2019-05-28T02:54:28.892Z,47.65
2019-05-28T02:56:56.896Z,47.73
2019-05-28T02:59:24.871Z,47.66
2019-05-28T03:01:53.134Z,47.65
2019-05-28T03:04:23.466Z,47.59
2019-05-28T03:06:51.463Z,47.59
2019-05-28T03:09:19.434Z,47.54
2019-05-28T03:11:47.506Z,47.61
2019-05-28T03:14:15.549Z,47.57
2019-05-28T03:16:43.652Z,47.55
2019-05-28T03:19:11.633Z,47.48
2019-05-28T03:21:39.635Z,47.64
2019-05-28T03:24:07.691Z,47.63
2019-05-28T03:26:35.680Z,47.63
2019-05-28T03:29:03.743Z,47.46
2019-05-28T03:31:31.900Z,47.66
2019-05-28T03:33:59.968Z,47.90
2019-05-28T03:36:28.040Z,47.68
2019-05-28T03:38:56.443Z,47.72
2019-05-28T03:41:24.506Z,47.60
2019-05-28T03:43:52.502Z,47.55
2019-05-28T03:46:20.486Z,47.45
2019-05-28T03:48:48.618Z,47.45
2019-05-28T03:51:16.779Z,47.44
2019-05-28T03:53:44.787Z,47.40
2019-05-28T03:56:12.755Z,47.69
2019-05-28T03:58:40.778Z,47.56
2019-05-28T04:01:08.762Z,47.80
2019-05-28T04:03:36.843Z,47.64
2019-05-28T04:06:04.887Z,47.59
2019-05-28T04:08:32.967Z,47.51
2019-05-28T04:11:00.967Z,47.48
2019-05-28T04:13:29.049Z,47.52
2019-05-28T04:15:57.046Z,47.51
2019-05-28T04:18:25.118Z,47.40
2019-05-28T04:20:53.165Z,47.44
2019-05-28T04:23:21.166Z,47.47
2019-05-28T04:25:49.150Z,47.46
2019-05-28T04:28:17.153Z,47.43
2019-05-28T04:30:45.305Z,47.51
2019-05-28T04:33:13.383Z,47.49
2019-05-28T04:35:41.426Z,47.43
2019-05-28T04:38:09.618Z,47.43
2019-05-28T04:40:37.674Z,47.41
2019-05-28T04:43:05.826Z,47.38
2019-05-28T04:45:33.807Z,47.37
2019-05-28T04:48:01.852Z,47.30
2019-05-28T04:50:29.918Z,47.32
2019-05-28T04:52:57.915Z,47.32
2019-05-28T04:55:25.883Z,47.42
2019-05-28T04:57:54.061Z,47.50
2019-05-28T05:00:22.027Z,47.43
2019-05-28T05:02:59.540Z,47.43
2019-05-28T05:05:19.854Z,47.44
2019-05-28T05:07:47.940Z,47.55
2019-05-28T05:10:19.059Z,47.62
2019-05-28T05:12:45.742Z,47.65
2019-05-28T05:15:13.806Z,47.69
2019-05-28T05:17:41.810Z,47.68
2019-05-28T05:20:09.875Z,47.70
2019-05-28T05:22:37.867Z,47.70
2019-05-28T05:25:05.923Z,47.71
2019-05-28T05:27:33.998Z,47.67
2019-05-28T05:30:02.149Z,47.68
2019-05-28T05:32:30.166Z,47.74
2019-05-28T05:34:58.166Z,48.55
2019-05-28T05:37:26.152Z,47.68
2019-05-28T05:39:54.248Z,47.40
2019-05-28T05:42:22.328Z,47.13
2019-05-28T05:44:50.473Z,46.54
2019-05-28T05:47:18.624Z,46.00
2019-05-28T05:49:46.753Z,45.95
2019-05-28T05:52:14.789Z,45.59
2019-05-28T05:54:42.875Z,45.37
2019-05-28T05:57:10.996Z,45.06
2019-05-28T05:59:39.064Z,45.39
2019-05-28T06:02:07.066Z,45.86
2019-05-28T06:04:35.142Z,46.30
2019-05-28T06:07:03.190Z,46.95
2019-05-28T06:09:31.190Z,47.33
2019-05-28T06:11:59.203Z,47.65
2019-05-28T06:14:27.203Z,47.40
2019-05-28T06:16:55.340Z,47.41
2019-05-28T06:19:23.341Z,46.81
2019-05-28T06:21:51.474Z,46.25
2019-05-28T06:24:19.484Z,46.48
2019-05-28T06:26:47.618Z,46.82
2019-05-28T06:29:15.679Z,46.84
2019-05-28T06:31:43.881Z,46.83
2019-05-28T06:34:11.986Z,46.82
2019-05-28T06:36:40.045Z,46.85
2019-05-28T06:39:08.364Z,46.81
2019-05-28T06:41:36.496Z,46.66
2019-05-28T06:44:04.884Z,46.67
2019-05-28T06:46:32.955Z,46.61
2019-05-28T06:49:01.045Z,46.60
2019-05-28T06:51:29.124Z,46.62
2019-05-28T06:53:57.114Z,46.60
2019-05-28T06:56:25.175Z,46.58
2019-05-28T06:58:53.446Z,46.86
2019-05-28T07:01:21.550Z,46.99
2019-05-28T07:03:49.727Z,47.02
2019-05-28T07:06:17.785Z,46.99
2019-05-28T07:08:45.952Z,46.87
2019-05-28T07:11:14.048Z,46.76
2019-05-28T07:13:42.162Z,46.63
2019-05-28T07:16:10.139Z,46.71
2019-05-28T07:18:38.115Z,46.77
2019-05-28T07:21:06.124Z,46.72
2019-05-28T07:23:34.191Z,46.86
2019-05-28T07:26:02.231Z,46.59
2019-05-28T07:28:30.228Z,46.13
2019-05-28T07:30:58.383Z,45.86
2019-05-28T07:33:26.431Z,45.43
2019-05-28T07:35:54.435Z,45.50
2019-05-28T07:38:22.438Z,45.55
2019-05-28T07:40:50.617Z,45.42
2019-05-28T07:43:18.681Z,45.22
2019-05-28T07:45:46.685Z,44.96
2019-05-28T07:48:14.694Z,44.83
2019-05-28T07:50:42.727Z,44.82
2019-05-28T07:53:10.694Z,44.67
2019-05-28T07:55:38.734Z,44.01
2019-05-28T07:58:06.860Z,43.95
2019-05-28T08:00:35.985Z,43.88
2019-05-28T08:03:04.039Z,43.61
2019-05-28T08:05:32.120Z,43.74
2019-05-28T08:08:00.170Z,43.33
2019-05-28T08:10:29.426Z,42.38
2019-05-28T08:12:57.563Z,42.03
2019-05-28T08:15:25.717Z,42.08
2019-05-28T08:17:53.794Z,42.24
2019-05-28T08:20:21.891Z,42.01
2019-05-28T08:22:49.870Z,42.24
2019-05-28T08:25:33.364Z,42.28
2019-05-28T08:27:47.755Z,42.49
2019-05-28T08:30:15.752Z,42.58
2019-05-28T08:32:43.791Z,42.83
2019-05-28T08:35:12.103Z,43.02
2019-05-28T08:37:40.150Z,43.16
2019-05-28T08:40:08.322Z,43.17
2019-05-28T08:42:36.295Z,43.20
2019-05-28T08:45:04.762Z,43.85
2019-05-28T08:47:32.764Z,44.69
2019-05-28T08:50:00.920Z,44.66
2019-05-28T08:52:29.077Z,44.68
2019-05-28T08:54:57.070Z,44.65
2019-05-28T08:57:25.222Z,44.61
2019-05-28T08:59:53.388Z,44.58
2019-05-28T09:02:27.965Z,44.63
2019-05-28T09:04:51.877Z,44.67
2019-05-28T09:07:20.011Z,44.65
2019-05-28T09:09:48.027Z,44.83
2019-05-28T09:12:16.155Z,44.85
2019-05-28T09:14:55.641Z,44.78
2019-05-28T09:17:13.967Z,44.69
2019-05-28T09:19:42.091Z,44.71
2019-05-28T09:22:24.629Z,44.83
2019-05-28T09:24:39.949Z,44.79
2019-05-28T09:27:08.174Z,44.80
2019-05-28T09:29:36.255Z,44.95
2019-05-28T09:32:04.390Z,44.99
2019-05-28T09:34:32.508Z,45.07
2019-05-28T09:37:00.594Z,45.20
2019-05-28T09:39:28.638Z,45.12
2019-05-28T09:41:56.779Z,45.16
2019-05-28T09:44:24.783Z,45.14
2019-05-28T09:46:52.814Z,45.12
2019-05-28T09:49:20.879Z,45.11
2019-05-28T09:51:48.963Z,45.07
2019-05-28T09:54:17.014Z,45.07
2019-05-28T09:56:45.152Z,45.28
2019-05-28T09:59:13.367Z,45.49
2019-05-28T10:01:41.555Z,45.53
2019-05-28T10:04:09.539Z,45.93
2019-05-28T10:06:41.041Z,45.96
2019-05-28T10:09:07.324Z,45.84
2019-05-28T10:11:35.366Z,45.87
2019-05-28T10:14:03.347Z,45.91
2019-05-28T10:16:31.355Z,45.80
2019-05-28T10:18:59.330Z,45.77
2019-05-28T10:21:27.412Z,45.69
2019-05-28T10:23:55.459Z,45.70
2019-05-28T10:26:23.558Z,45.66
2019-05-28T10:28:51.537Z,45.70
2019-05-28T10:31:19.548Z,45.68
2019-05-28T10:33:47.706Z,45.77
2019-05-28T10:36:32.149Z,45.85
2019-05-28T10:38:45.571Z,45.99
2019-05-28T10:41:13.736Z,45.96
2019-05-28T10:43:41.702Z,45.54
2019-05-28T10:46:10.132Z,45.69
2019-05-28T10:48:38.375Z,45.75
2019-05-28T10:51:06.455Z,45.13
2019-05-28T10:53:34.509Z,45.14
2019-05-28T10:56:02.684Z,45.21
2019-05-28T10:58:30.675Z,45.19
2019-05-28T11:00:58.681Z,45.34
2019-05-28T11:03:26.760Z,45.50
2019-05-28T11:05:54.919Z,45.60
2019-05-28T11:08:22.899Z,45.64
2019-05-28T11:10:50.974Z,45.68
2019-05-28T11:13:19.027Z,45.73
2019-05-28T11:15:47.128Z,45.84
2019-05-28T11:18:15.183Z,45.92
2019-05-28T11:20:43.163Z,45.96
2019-05-28T11:23:11.342Z,45.94
2019-05-28T11:25:39.386Z,45.99
2019-05-28T11:28:07.403Z,46.00
2019-05-28T11:30:35.531Z,46.02
2019-05-28T11:33:03.546Z,45.98
2019-05-28T11:35:31.672Z,45.99
2019-05-28T11:37:59.679Z,46.00
2019-05-28T11:40:29.909Z,46.03
2019-05-28T11:42:57.542Z,46.08
2019-05-28T11:45:25.595Z,46.12
2019-05-28T11:47:53.806Z,46.13
2019-05-28T11:50:21.951Z,46.18
2019-05-28T11:52:52.334Z,46.22
2019-05-28T11:55:21.015Z,46.25
2019-05-28T11:57:49.164Z,46.30
2019-05-28T12:00:17.309Z,46.39
2019-05-28T12:02:45.350Z,46.44
2019-05-28T12:05:13.403Z,46.48
2019-05-28T12:07:41.432Z,46.53
2019-05-28T12:10:09.656Z,46.57
2019-05-28T12:12:39.617Z,46.60
2019-05-28T12:15:07.943Z,46.12
2019-05-28T12:17:42.319Z,46.27
2019-05-28T12:20:05.602Z,46.40
2019-05-28T12:22:33.665Z,46.42
2019-05-28T12:25:01.759Z,46.50
2019-05-28T12:27:30.059Z,46.61
2019-05-28T12:29:58.106Z,46.62
2019-05-28T12:32:26.110Z,46.57
2019-05-28T12:34:54.080Z,46.54
2019-05-28T12:37:22.129Z,46.56
2019-05-28T12:39:50.237Z,46.63
2019-05-28T12:42:18.317Z,46.64
2019-05-28T12:44:46.463Z,46.80
2019-05-28T12:47:15.253Z,47.02
2019-05-28T12:49:43.459Z,47.09
2019-05-28T12:52:11.697Z,46.98
2019-05-28T12:54:39.706Z,47.03
2019-05-28T12:57:07.710Z,47.03
2019-05-28T12:59:35.857Z,47.10
2019-05-28T13:02:04.036Z,47.06
2019-05-28T13:04:32.021Z,47.13
2019-05-28T13:07:00.107Z,47.32
2019-05-28T13:09:28.193Z,47.34
2019-05-28T13:11:56.363Z,47.37
2019-05-28T13:14:24.314Z,47.54
2019-05-28T13:16:52.291Z,47.66
2019-05-28T13:19:20.418Z,47.83
2019-05-28T13:21:48.563Z,47.96
2019-05-28T13:24:16.641Z,48.07
2019-05-28T13:26:44.791Z,48.46
2019-05-28T13:29:12.870Z,48.48
2019-05-28T13:31:40.912Z,48.53
2019-05-28T13:34:09.099Z,48.59
2019-05-28T13:36:37.234Z,48.67
2019-05-28T13:39:06.428Z,48.87
2019-05-28T13:41:34.624Z,48.92
2019-05-28T13:44:02.752Z,49.14
2019-05-28T13:46:30.882Z,49.13
2019-05-28T13:48:58.911Z,49.27
2019-05-28T13:51:26.891Z,49.37
2019-05-28T13:53:54.926Z,49.46
2019-05-28T13:56:22.903Z,49.54
2019-05-28T13:58:51.139Z,49.48
2019-05-28T14:01:19.189Z,49.58
2019-05-28T14:03:47.458Z,49.65
2019-05-28T14:06:15.417Z,49.94
2019-05-28T14:08:47.241Z,49.94
2019-05-28T14:11:14.220Z,50.06
2019-05-28T14:13:42.295Z,50.13
2019-05-28T14:16:10.374Z,50.24
2019-05-28T14:18:38.667Z,50.25
2019-05-28T14:21:06.766Z,50.31
2019-05-28T14:23:34.866Z,50.41
2019-05-28T14:26:02.917Z,50.38
2019-05-28T14:28:30.947Z,50.42
2019-05-28T14:31:00.501Z,50.38
2019-05-28T14:33:28.692Z,50.40
2019-05-28T14:35:56.762Z,50.43
2019-05-28T14:38:24.847Z,50.52
2019-05-28T14:40:53.263Z,50.54
2019-05-28T14:43:21.429Z,50.45
2019-05-28T14:45:49.782Z,50.43
2019-05-28T14:48:17.811Z,50.48
2019-05-28T14:50:46.184Z,50.57
2019-05-28T14:53:14.142Z,50.66
2019-05-28T14:55:42.315Z,50.72
2019-05-28T14:58:13.519Z,50.76
2019-05-28T15:00:40.051Z,50.82
2019-05-28T15:03:08.067Z,50.76
2019-05-28T15:05:36.220Z,50.84
2019-05-28T15:08:04.267Z,50.85
2019-05-28T15:10:32.375Z,50.92
2019-05-28T15:13:00.497Z,50.91
2019-05-28T15:15:35.924Z,50.88
2019-05-28T15:17:58.425Z,50.86
2019-05-28T15:20:26.445Z,50.88
2019-05-28T15:22:54.508Z,50.84
2019-05-28T15:25:22.575Z,50.89
2019-05-28T15:27:50.635Z,50.89
2019-05-28T15:30:18.841Z,50.91
2019-05-28T15:32:46.881Z,50.94
2019-05-28T15:35:14.984Z,51.01
2019-05-28T15:37:43.142Z,51.03
2019-05-28T15:40:30.207Z,51.06
2019-05-28T15:43:06.328Z,51.10
2019-05-28T15:45:27.859Z,51.17
2019-05-28T15:47:55.882Z,51.22
2019-05-28T15:50:24.048Z,51.22
2019-05-28T15:52:52.012Z,51.25
2019-05-28T15:55:20.173Z,51.29
2019-05-28T15:57:48.212Z,51.27
2019-05-28T16:00:17.447Z,51.27
2019-05-28T16:02:45.526Z,51.28
2019-05-28T16:05:13.683Z,51.34
2019-05-28T16:07:41.736Z,51.38
2019-05-28T16:10:09.736Z,51.40
2019-05-28T16:12:37.722Z,51.44
2019-05-28T16:15:06.055Z,51.48
2019-05-28T16:17:34.049Z,51.50
2019-05-28T16:20:02.053Z,51.51
2019-05-28T16:22:30.114Z,51.52
2019-05-28T16:24:58.125Z,51.55
2019-05-28T16:27:26.167Z,51.58
2019-05-28T16:29:54.250Z,51.58
2019-05-28T16:32:27.905Z,51.68
2019-05-28T16:34:52.026Z,51.73
2019-05-28T16:37:20.147Z,51.69
2019-05-28T16:39:48.166Z,51.71
2019-05-28T16:42:16.234Z,51.71
2019-05-28T16:44:44.304Z,51.73
2019-05-28T16:47:18.639Z,51.74
2019-05-28T16:49:42.160Z,51.78
2019-05-28T16:52:10.293Z,51.83
2019-05-28T16:54:38.284Z,51.85
2019-05-28T16:57:06.258Z,51.88
2019-05-28T16:59:34.428Z,51.95
2019-05-28T17:02:02.396Z,51.88
2019-05-28T17:04:30.398Z,51.82
2019-05-28T17:06:58.388Z,51.81
2019-05-28T17:09:26.502Z,51.82
2019-05-28T17:11:54.667Z,51.82
2019-05-28T17:14:26.374Z,51.82
2019-05-28T17:16:52.552Z,51.85
2019-05-28T17:19:20.603Z,51.92
2019-05-28T17:21:48.665Z,52.02
2019-05-28T17:24:16.659Z,52.06
2019-05-28T17:26:44.747Z,52.04
2019-05-28T17:29:12.791Z,52.03
2019-05-28T17:31:41.061Z,52.04
2019-05-28T17:34:09.047Z,52.13
2019-05-28T17:36:37.059Z,52.17
2019-05-28T17:39:06.619Z,52.22
2019-05-28T17:41:34.635Z,52.25
2019-05-28T17:44:02.690Z,52.28
2019-05-28T17:46:30.683Z,52.29
2019-05-28T17:48:58.750Z,52.25
2019-05-28T17:51:26.761Z,52.34
2019-05-28T17:53:54.734Z,52.39
2019-05-28T17:56:22.813Z,52.42
2019-05-28T18:01:37.991Z,52.60
2019-05-28T18:04:05.983Z,52.61
2019-05-28T18:06:34.070Z,52.68
2019-05-28T18:09:02.278Z,52.71
2019-05-28T18:11:30.378Z,52.75
2019-05-28T18:13:58.355Z,52.80
2019-05-28T18:16:26.450Z,52.85
2019-05-28T18:18:54.540Z,52.86
2019-05-28T18:23:56.030Z,52.88
2019-05-28T18:26:24.215Z,52.89
2019-05-28T18:28:52.263Z,52.94
2019-05-28T18:31:20.474Z,52.94
2019-05-28T18:33:48.558Z,52.95
2019-05-28T18:36:16.574Z,52.97
2019-05-28T18:38:44.646Z,53.03
2019-05-28T18:41:21.687Z,53.00
2019-05-28T18:43:42.261Z,53.00
2019-05-28T18:46:10.258Z,53.02
2019-05-28T18:48:38.608Z,53.10
2019-05-28T18:51:06.692Z,53.10
2019-05-28T18:53:34.750Z,53.06
2019-05-28T18:56:16.480Z,53.13
2019-05-28T18:58:35.579Z,53.09
2019-05-28T19:01:02.266Z,53.13
2019-05-28T19:03:30.320Z,53.14
2019-05-28T19:05:58.389Z,53.14
2019-05-28T19:08:26.435Z,53.10
2019-05-28T19:10:54.588Z,53.10
2019-05-28T19:13:22.579Z,53.10
2019-05-28T19:15:50.667Z,53.11
2019-05-28T19:18:18.647Z,53.10
2019-05-28T19:20:46.686Z,53.09
2019-05-28T19:23:14.758Z,53.05
2019-05-28T19:25:42.750Z,53.02
2019-05-28T19:30:44.392Z,52.99
2019-05-28T19:33:12.491Z,52.96
2019-05-28T19:35:40.497Z,52.89
2019-05-28T19:38:08.578Z,52.90
2019-05-28T19:40:37.173Z,52.86
2019-05-28T19:43:05.341Z,52.72
2019-05-28T19:45:33.621Z,52.63
2019-05-28T19:48:01.727Z,52.59
2019-05-28T19:50:29.770Z,52.42
2019-05-28T19:52:57.897Z,52.44
2019-05-28T19:55:25.950Z,52.29
2019-05-28T19:57:54.034Z,52.30
2019-05-28T20:00:22.092Z,52.16
2019-05-28T20:02:50.096Z,52.18
2019-05-28T20:05:18.082Z,52.21
2019-05-28T20:07:46.226Z,52.14
2019-05-28T20:10:14.225Z,52.08
2019-05-28T20:12:42.290Z,52.03
2019-05-28T20:15:10.514Z,52.13
2019-05-28T20:17:38.593Z,52.05
2019-05-28T20:20:06.573Z,52.01
2019-05-28T20:22:34.656Z,52.01
2019-05-28T20:25:02.708Z,51.92
2019-05-28T20:27:30.707Z,51.90
2019-05-28T20:29:58.835Z,51.81
2019-05-28T20:32:26.804Z,51.92
2019-05-28T20:34:54.781Z,51.86
2019-05-28T20:37:22.774Z,51.91
2019-05-28T20:39:50.766Z,51.88
2019-05-28T20:42:27.275Z,51.89
2019-05-28T20:44:48.462Z,51.79
2019-05-28T20:47:16.687Z,51.81
2019-05-28T20:49:44.674Z,51.92
2019-05-28T20:52:12.670Z,51.85
2019-05-28T20:54:40.710Z,51.85
2019-05-28T20:57:08.709Z,51.71
2019-05-28T20:59:36.683Z,51.61
2019-05-28T21:02:04.906Z,51.61
2019-05-28T21:04:33.047Z,51.69
2019-05-28T21:07:01.140Z,51.52
2019-05-28T21:09:29.260Z,51.44
2019-05-28T21:11:57.262Z,51.48
2019-05-28T21:14:25.402Z,51.45
2019-05-28T21:16:53.450Z,51.45
2019-05-28T21:19:21.712Z,51.42
2019-05-28T21:21:49.807Z,51.52
2019-05-28T21:24:17.875Z,51.44
2019-05-28T21:26:45.998Z,51.40
2019-05-28T21:29:14.135Z,51.36
2019-05-28T21:31:42.144Z,51.22
2019-05-28T21:34:10.231Z,51.31
2019-05-28T21:36:38.209Z,51.28
2019-05-28T21:39:06.800Z,51.20
2019-05-28T21:41:34.854Z,51.19
2019-05-28T21:44:02.899Z,51.06
2019-05-28T21:46:30.900Z,50.95
2019-05-28T21:48:59.100Z,50.91
2019-05-28T21:51:27.084Z,50.87
2019-05-28T21:53:55.258Z,50.81
2019-05-28T21:56:23.467Z,50.87
2019-05-28T21:58:51.587Z,51.04
2019-05-28T22:01:20.388Z,51.05
2019-05-28T22:03:48.379Z,50.95
2019-05-28T22:06:16.437Z,50.78
2019-05-28T22:08:44.523Z,50.81
2019-05-28T22:11:12.503Z,50.67
2019-05-28T22:13:40.497Z,50.54
2019-05-28T22:16:08.609Z,50.67
2019-05-28T22:18:36.760Z,50.51
2019-05-28T22:21:04.886Z,50.45
2019-05-28T22:23:32.883Z,50.39
2019-05-28T22:26:00.939Z,50.48
2019-05-28T22:28:29.091Z,50.37
2019-05-28T22:30:57.714Z,50.41
2019-05-28T22:33:26.015Z,50.34
2019-05-28T22:35:54.239Z,50.43
2019-05-28T22:38:22.231Z,50.39
2019-05-28T22:40:50.202Z,50.27
2019-05-28T22:43:30.765Z,50.30
2019-05-28T22:45:48.380Z,50.16
2019-05-28T22:48:17.972Z,50.36
2019-05-28T22:50:46.422Z,50.36
2019-05-28T22:53:14.587Z,50.31
2019-05-28T22:55:42.554Z,50.31
2019-05-28T22:58:10.781Z,50.20
2019-05-28T23:00:38.767Z,50.01
2019-05-28T23:03:07.133Z,50.51
2019-05-28T23:05:35.146Z,50.67
2019-05-28T23:08:03.844Z,50.63
2019-05-28T23:10:31.944Z,50.72
2019-05-28T23:13:00.860Z,50.49
2019-05-28T23:15:29.171Z,50.56
2019-05-28T23:17:57.142Z,50.55
2019-05-28T23:20:25.219Z,50.40
2019-05-28T23:22:53.272Z,50.18
2019-05-28T23:25:21.291Z,50.05
2019-05-28T23:27:49.296Z,50.07
2019-05-28T23:30:24.548Z,49.92
2019-05-28T23:32:47.188Z,50.03
2019-05-28T23:35:15.203Z,49.94
2019-05-28T23:37:43.184Z,50.00
2019-05-28T23:40:11.349Z,49.87
2019-05-28T23:42:39.624Z,49.87
2019-05-28T23:45:07.782Z,49.82
2019-05-28T23:47:35.919Z,49.89
2019-05-28T23:50:04.335Z,49.95
2019-05-28T23:52:32.416Z,50.01
2019-05-28T23:55:00.500Z,49.95
2019-05-28T23:57:28.548Z,50.03
2019-05-28T23:59:56.551Z,49.98
